Messwerte Zamboanga

Temperatur

Temperatur
°C
1606568400 21.00 21.00
1606572000 22.00 22.00
1606575600 23.00 23.00
1606579200 0.00 0.00
1606582800 1.00 1.00
1606586400 2.00 2.00 26
1606590000 3.00 3.00
1606593600 4.00 4.00
1606597200 5.00 5.00 25
1606600800 6.00 6.00 25
1606604400 7.00 7.00 25
1606608000 8.00 8.00 26
1606611600 9.00 9.00 28
1606615200 10.00 10.00 29
1606618800 11.00 11.00 31
1606622400 12.00 12.00 31
1606626000 13.00 13.00 29
1606629600 14.00 14.00 32
1606633200 15.00 15.00 29
1606636800 16.00 16.00 29
1606640400 17.00 17.00 29
1606644000 18.00 18.00 28
1606647600 19.00 19.00
1606651200 20.00 20.00 27

Aktuellste Messwerte

Wettercharakter
Wetter: freundlich
Temperatur
27 °C
Feuchtigkeit
90 %
Wind
5 km/hWindrichtung: Nord
Luftdruck
1009 hPa
Messzeit: 29. November 2020, 20.00Datenquelle: METAR

Weitere Messstationen in der Nähe

Messstation Temperatur Entfernung
Dumaguete 28 °C 299 km
Davao 27 °C 396 km
Sandakan 26 °C 455 km
Puerto Princesa 29 °C 485 km

Wind

Windrichtung Böen Mittelwind
° km/h km/h
1606568400 21.00 20.00 - 21.00
1606572000 22.00 21.00 - 22.00
1606575600 23.00 22.00 - 23.00 270° 10
1606579200 0.00 23.00 - 0.00
1606582800 1.00 0.00 - 1.00
1606586400 2.00 1.00 - 2.00 310° 5
1606590000 3.00 2.00 - 3.00
1606593600 4.00 3.00 - 4.00
1606597200 5.00 4.00 - 5.00 5
1606600800 6.00 5.00 - 6.00 5
1606604400 7.00 6.00 - 7.00 5
1606608000 8.00 7.00 - 8.00 5
1606611600 9.00 8.00 - 9.00 5
1606615200 10.00 9.00 - 10.00 90° 5
1606618800 11.00 10.00 - 11.00 180° 10
1606622400 12.00 11.00 - 12.00 180° 10
1606626000 13.00 12.00 - 13.00 210° 10
1606629600 14.00 13.00 - 14.00 210° 5
1606633200 15.00 14.00 - 15.00 260° 10
1606636800 16.00 15.00 - 16.00 270° 10
1606640400 17.00 16.00 - 17.00 280° 5
1606644000 18.00 17.00 - 18.00 260° 5
1606647600 19.00 18.00 - 19.00
1606651200 20.00 19.00 - 20.00 340° 5

Ihre Wetterstation

Fehlt Ihre Wetterstation auf unserem Portal?

Schreiben Sie an network@meteonews.ch

Klima

Wann ist es am wärmsten? Wann regnet es am wenigsten? Unsere Klimadaten geben Auskunft.